Alhambra, IL

12:26 AM CDT on September 21, 2014 (GMT -0500)
Hamel, IL 55/140 | Change Station
CLOSE
Current Station
Personal Weather Station
Location: Worden, IL
Elevation: 564 ft
Nearby Weather Stations

Elev 564 ft 38.90 °N, 89.84 °W | Updated 21 seconds ago

Partly Cloudy
Partly Cloudy
73.8 °F
Feels Like 74 °F
N
3.7
Wind Variable Wind from WSW
Gusts 4.7 mph

Today
High -- | Low -- °F
--% Chance of Precip.
Yesterday
High -- | Low -- °F
Precip. -- in
6:45 AM 6:57 PM
Waning Crescent, 8% visible
Pressure 29.91 in
Visibility 10.0 miles
Clouds Mostly Cloudy 6000 ft
Mostly Cloudy 7000 ft
Heat Index 74 °F
Dew Point 68 °F
Humidity 82%
Rainfall 0.00 in
Snow Depth Not available.
UV 0 out of 12
Pollen 7.40 out of 12
Ozone Good
PM2.5 Good
Flu Activity Not available.
METAR KALN 210515Z AUTO 22005KT 10SM BKN060 BKN070 23/20 A2991 RMK AO2 T02300195

More Conditions Fewer Conditions

Pressure 29.91 in
Visibility 10.0 miles
Clouds Mostly Cloudy 6000 ft
Mostly Cloudy 7000 ft
Heat Index 74 °F
Dew Point 68 °F
Humidity 82%
Rainfall 0.00 in
Snow Depth Not available.
UV 0 out of 12
Pollen 7.40 out of 12
Ozone Good
PM2.5 Good
Flu Activity Not available.
METAR KALN 210515Z AUTO 22005KT 10SM BKN060 BKN070 23/20 A2991 RMK AO2 T02300195

More Conditions Fewer Conditions

10-Day Weather Forecast

Almanac

Astronomy

Sep. 21, 2014 Rise Set
Actual Time 6:45 AM CDT 6:57 PM CDT
Civil Twilight 6:19 AM CDT 7:24 PM CDT
Nautical Twilight 5:47 AM CDT 7:55 PM CDT
Astronomical Twilight 5:16 AM CDT 8:26 PM CDT
Moon 4:20 AM CDT 5:32 PM CDT
Length of Visible Light 13h 04m
Length of Day
12h 11m
Tomorrow will be 2m 30s shorter.
Waning Crescent, 8% of the Moon is Illuminated
Today
Waning Crescent
Sep 24
New
Oct 1
First Quarter
Oct 8
Full
Oct 15
Last Quarter

Today's Extremes

State Highs State Lows

Community

WunderPhotos

Upload Photos

1,755,090 photos uploaded!

Nearby

Air Quality

  Air Quality AQ Index Pollutant
Yesterday Moderate
PM2.5
Yesterday Good
OZONE
Current Good
PM2.5
Current Good
OZONE
Saturday Moderate
PM2.5
Sunday Good
PM2.5
Monday Good
PM2.5
Tuesday Moderate
PM2.5

Snow Depth

Station Depth Elevation
No new snow has been reported.

Earthquake Activity

City Distance Mag. Time & Date
No recent earthquake activity has been reported nearby.
Minimum magnitude displayed is 2.5.

Coastal Water Temperatures

Place Temperature
No Stations Reporting

Nearby Weather Stations